Ozette, Washington
Current Conditions -  °F | °C
As of 6:01 PM on Saturday 25 Oct 2014 (Local Time) from KUIL Reporting Station
Light Rain Light Rain  
Wind Chill: 51°   Ceiling: 700
Heat Index: 51°   Visibility: 2.5mi
Dew Point: 50°   Wind: 16mph
Humidity: 96%   Direction: 300°WNW
Pressure: 29.32"   Gusts: 28mph
Location:  48.1788°N, 124.127°W
Report Text: KUIL 260101Z AUTO 30014G24KT 2 1/2SM -RA BR BKN007 OVC012 11/10 A2932 RMK AO2 CIG 005V010 P0001 T01060100
Loading
Personal Weather Stations






























Interactive Weather Map
Tropical Storm Tracking
New forecast layout! Learn more

10-Day Weather Forecast

Advertisements
Track Severe Weather on mobile